Aérodrome :
LOGIN :

S'inscrire | Disclaimer

   EN    FR    IT 

 










Légende :    VFR   VFR Marginal   IFR   IFR Intensif   IFR Très Intensif
Visi : 
Plafond : 
>= 8 km
>= 3000ft
5 à 8 km
1000 à 3000 ft
1500m à 5 km
500 à 1000 ft
800 à 1500m
200 à 500 ft
< 800m
< 200 ft
Symboles :   Orages  Brouillard  Fortes neiges  Fortes précipitations  Vent > 20 kt
SIGMETs :   Divers  Orages  Givrage  Turbulence  Onde Orograph.  Cendres Volcan.







- Altitude de l'aérodrome : 1247 ft
- Code IATA : PRG


LKPR - Praha Ruzyne

DERNIER METAR :
  • 220030Z VRB01KT CAVOK 14/09 Q1018 NOSIG

METARs EXPIRÉS :
  • 220000Z VRB02KT CAVOK 15/10 Q1019 NOSIG
  • 212330Z VRB02KT CAVOK 14/09 Q1019 NOSIG
  • 212300Z 32004KT CAVOK 14/10 Q1019 NOSIG
  • 212230Z 31003KT CAVOK 14/10 Q1019 NOSIG
  • 212200Z VRB02KT CAVOK 15/10 Q1019 NOSIG

TAF TAF LKPR
Valide du 22 à 00h jusqu'au 23 à 06h UTC


212300Z 2200/2306 VRB02KT CAVOK
BECMG 2208/2210 12006KT
PROB30
TEMPO 2212/2218 9999 SCT050CB
TEMPO 2221/2304 8000 RA BKN040
PROB30
TEMPO 2221/2304 4000 TSRA SCT030CB
Pas de NOTAMs connus pour ce terrain.



MET'MAP, la Météo Aéronautique d'un coup d'oeil ! - Copyright ORBIFLY Décembre 2007 - Disclaimer

ORBIFLY MET'MAP TEAM :

Programmation & Développement : Alexandra Zaïnal
Conception & Développement : Baudouin d'Aumeries
Co-Programmation & Développement : Marc-Olivier Méhu
Soutien technique & logistique : Manuel Goepfert

Contact : metmap@orbifly.com




SOURCES & CREDITS :

   NOAA